sensor_id;sensor_type;location;lat;lon;timestamp;P1;durP1;ratioP1;P2;durP2;ratioP2
4766;SDS011;2397;53.576;9.746;2023-05-19T00:00:57;7.23;;;4.17;;
4766;SDS011;2397;53.576;9.746;2023-05-19T00:03:25;8.40;;;4.37;;
4766;SDS011;2397;53.576;9.746;2023-05-19T00:05:52;6.93;;;4.40;;
4766;SDS011;2397;53.576;9.746;2023-05-19T00:08:19;5.57;;;4.00;;
4766;SDS011;2397;53.576;9.746;2023-05-19T00:10:49;6.20;;;4.33;;
4766;SDS011;2397;53.576;9.746;2023-05-19T00:13:16;10.23;;;3.83;;
4766;SDS011;2397;53.576;9.746;2023-05-19T00:15:43;6.60;;;5.00;;
4766;SDS011;2397;53.576;9.746;2023-05-19T00:18:10;4.93;;;4.00;;
4766;SDS011;2397;53.576;9.746;2023-05-19T00:20:39;5.77;;;4.43;;
4766;SDS011;2397;53.576;9.746;2023-05-19T00:23:06;6.93;;;4.10;;
4766;SDS011;2397;53.576;9.746;2023-05-19T00:25:33;5.20;;;4.40;;
4766;SDS011;2397;53.576;9.746;2023-05-19T00:28:00;9.03;;;4.20;;
4766;SDS011;2397;53.576;9.746;2023-05-19T00:30:28;5.47;;;3.90;;
4766;SDS011;2397;53.576;9.746;2023-05-19T00:32:55;9.03;;;4.50;;
4766;SDS011;2397;53.576;9.746;2023-05-19T00:35:22;4.90;;;3.80;;
4766;SDS011;2397;53.576;9.746;2023-05-19T00:37:49;6.10;;;5.07;;
4766;SDS011;2397;53.576;9.746;2023-05-19T00:40:16;6.53;;;4.30;;
4766;SDS011;2397;53.576;9.746;2023-05-19T00:42:42;6.73;;;4.47;;
4766;SDS011;2397;53.576;9.746;2023-05-19T00:45:09;7.23;;;4.47;;
4766;SDS011;2397;53.576;9.746;2023-05-19T00:47:35;4.83;;;4.33;;
4766;SDS011;2397;53.576;9.746;2023-05-19T00:50:02;10.47;;;4.60;;
4766;SDS011;2397;53.576;9.746;2023-05-19T00:52:29;6.47;;;4.27;;
4766;SDS011;2397;53.576;9.746;2023-05-19T00:54:56;6.30;;;4.53;;
4766;SDS011;2397;53.576;9.746;2023-05-19T00:57:23;7.30;;;4.73;;
4766;SDS011;2397;53.576;9.746;2023-05-19T00:59:51;8.13;;;4.20;;
4766;SDS011;2397;53.576;9.746;2023-05-19T01:02:18;6.40;;;4.70;;
4766;SDS011;2397;53.576;9.746;2023-05-19T01:04:44;6.77;;;4.40;;
4766;SDS011;2397;53.576;9.746;2023-05-19T01:07:13;6.90;;;4.63;;
4766;SDS011;2397;53.576;9.746;2023-05-19T01:09:40;6.90;;;4.23;;
4766;SDS011;2397;53.576;9.746;2023-05-19T01:12:07;7.00;;;4.83;;
4766;SDS011;2397;53.576;9.746;2023-05-19T01:14:34;8.90;;;5.60;;
4766;SDS011;2397;53.576;9.746;2023-05-19T01:17:08;6.43;;;4.60;;
4766;SDS011;2397;53.576;9.746;2023-05-19T01:20:00;8.60;;;4.27;;
4766;SDS011;2397;53.576;9.746;2023-05-19T01:26:05;8.90;;;4.00;;
4766;SDS011;2397;53.576;9.746;2023-05-19T01:31:37;6.80;;;4.67;;
4766;SDS011;2397;53.576;9.746;2023-05-19T01:34:07;7.63;;;4.70;;
4766;SDS011;2397;53.576;9.746;2023-05-19T01:36:37;7.67;;;4.63;;
4766;SDS011;2397;53.576;9.746;2023-05-19T01:39:06;7.20;;;4.63;;
4766;SDS011;2397;53.576;9.746;2023-05-19T01:41:33;15.87;;;5.00;;
4766;SDS011;2397;53.576;9.746;2023-05-19T01:44:00;5.20;;;4.33;;
4766;SDS011;2397;53.576;9.746;2023-05-19T01:46:27;5.77;;;4.23;;
4766;SDS011;2397;53.576;9.746;2023-05-19T01:48:54;6.20;;;5.03;;
4766;SDS011;2397;53.576;9.746;2023-05-19T01:51:21;12.07;;;4.73;;
4766;SDS011;2397;53.576;9.746;2023-05-19T01:53:48;9.03;;;4.80;;
4766;SDS011;2397;53.576;9.746;2023-05-19T01:56:15;10.33;;;4.67;;
4766;SDS011;2397;53.576;9.746;2023-05-19T01:58:48;6.10;;;4.20;;
4766;SDS011;2397;53.576;9.746;2023-05-19T02:01:33;5.90;;;4.60;;
4766;SDS011;2397;53.576;9.746;2023-05-19T02:06:54;11.60;;;5.17;;
4766;SDS011;2397;53.576;9.746;2023-05-19T02:09:36;7.90;;;5.23;;
4766;SDS011;2397;53.576;9.746;2023-05-19T02:12:28;5.03;;;4.50;;
4766;SDS011;2397;53.576;9.746;2023-05-19T02:17:40;5.40;;;4.87;;
4766;SDS011;2397;53.576;9.746;2023-05-19T02:20:13;11.97;;;4.47;;
4766;SDS011;2397;53.576;9.746;2023-05-19T02:22:40;8.37;;;4.63;;
4766;SDS011;2397;53.576;9.746;2023-05-19T02:25:07;6.50;;;4.70;;
4766;SDS011;2397;53.576;9.746;2023-05-19T02:27:35;5.33;;;4.37;;
4766;SDS011;2397;53.576;9.746;2023-05-19T02:30:04;5.33;;;4.23;;
4766;SDS011;2397;53.576;9.746;2023-05-19T02:32:31;9.37;;;5.27;;
4766;SDS011;2397;53.576;9.746;2023-05-19T02:34:58;8.17;;;5.40;;
4766;SDS011;2397;53.576;9.746;2023-05-19T02:37:25;6.90;;;4.87;;
4766;SDS011;2397;53.576;9.746;2023-05-19T02:39:54;9.60;;;5.10;;
4766;SDS011;2397;53.576;9.746;2023-05-19T02:42:20;5.77;;;4.50;;
4766;SDS011;2397;53.576;9.746;2023-05-19T02:44:47;7.80;;;5.10;;
4766;SDS011;2397;53.576;9.746;2023-05-19T02:47:14;6.00;;;4.47;;
4766;SDS011;2397;53.576;9.746;2023-05-19T02:49:41;7.10;;;4.33;;
4766;SDS011;2397;53.576;9.746;2023-05-19T02:52:09;8.70;;;4.40;;
4766;SDS011;2397;53.576;9.746;2023-05-19T02:54:37;10.27;;;4.57;;
4766;SDS011;2397;53.576;9.746;2023-05-19T02:57:04;5.70;;;4.30;;
4766;SDS011;2397;53.576;9.746;2023-05-19T02:59:30;10.50;;;4.30;;
4766;SDS011;2397;53.576;9.746;2023-05-19T03:02:00;9.33;;;5.27;;
4766;SDS011;2397;53.576;9.746;2023-05-19T03:04:28;7.07;;;4.50;;
4766;SDS011;2397;53.576;9.746;2023-05-19T03:06:55;8.77;;;4.77;;
4766;SDS011;2397;53.576;9.746;2023-05-19T03:09:23;8.30;;;4.80;;
4766;SDS011;2397;53.576;9.746;2023-05-19T03:11:50;8.73;;;5.23;;
4766;SDS011;2397;53.576;9.746;2023-05-19T03:14:16;11.00;;;4.50;;
4766;SDS011;2397;53.576;9.746;2023-05-19T03:16:43;7.27;;;5.03;;
4766;SDS011;2397;53.576;9.746;2023-05-19T03:19:11;6.00;;;5.20;;
4766;SDS011;2397;53.576;9.746;2023-05-19T03:21:37;9.33;;;4.53;;
4766;SDS011;2397;53.576;9.746;2023-05-19T03:24:04;6.37;;;4.73;;
4766;SDS011;2397;53.576;9.746;2023-05-19T03:26:32;9.77;;;5.00;;
4766;SDS011;2397;53.576;9.746;2023-05-19T03:28:58;7.03;;;4.93;;
4766;SDS011;2397;53.576;9.746;2023-05-19T03:31:25;6.17;;;5.20;;
4766;SDS011;2397;53.576;9.746;2023-05-19T03:33:52;9.63;;;5.80;;
4766;SDS011;2397;53.576;9.746;2023-05-19T03:36:20;8.80;;;4.70;;
4766;SDS011;2397;53.576;9.746;2023-05-19T03:38:47;9.80;;;5.37;;
4766;SDS011;2397;53.576;9.746;2023-05-19T03:41:14;7.37;;;4.73;;
4766;SDS011;2397;53.576;9.746;2023-05-19T03:43:41;10.40;;;5.57;;
4766;SDS011;2397;53.576;9.746;2023-05-19T03:46:08;7.20;;;5.10;;
4766;SDS011;2397;53.576;9.746;2023-05-19T03:48:53;10.37;;;5.50;;
4766;SDS011;2397;53.576;9.746;2023-05-19T03:51:26;8.70;;;4.93;;
4766;SDS011;2397;53.576;9.746;2023-05-19T03:54:01;9.60;;;6.10;;
4766;SDS011;2397;53.576;9.746;2023-05-19T03:56:29;7.30;;;5.30;;
4766;SDS011;2397;53.576;9.746;2023-05-19T03:58:56;10.10;;;5.83;;
4766;SDS011;2397;53.576;9.746;2023-05-19T04:01:22;11.77;;;5.90;;
4766;SDS011;2397;53.576;9.746;2023-05-19T04:03:49;7.23;;;5.60;;
4766;SDS011;2397;53.576;9.746;2023-05-19T04:06:16;7.73;;;5.30;;
4766;SDS011;2397;53.576;9.746;2023-05-19T04:08:42;13.67;;;5.37;;
4766;SDS011;2397;53.576;9.746;2023-05-19T04:11:11;7.13;;;4.90;;
4766;SDS011;2397;53.576;9.746;2023-05-19T04:13:37;8.27;;;4.97;;
4766;SDS011;2397;53.576;9.746;2023-05-19T04:16:04;7.43;;;4.90;;
4766;SDS011;2397;53.576;9.746;2023-05-19T04:18:31;9.27;;;6.03;;
4766;SDS011;2397;53.576;9.746;2023-05-19T04:20:58;10.17;;;5.30;;
4766;SDS011;2397;53.576;9.746;2023-05-19T04:23:24;8.90;;;6.10;;
4766;SDS011;2397;53.576;9.746;2023-05-19T04:25:51;8.93;;;5.43;;
4766;SDS011;2397;53.576;9.746;2023-05-19T04:28:19;10.97;;;5.33;;
4766;SDS011;2397;53.576;9.746;2023-05-19T04:30:46;8.27;;;5.70;;
4766;SDS011;2397;53.576;9.746;2023-05-19T04:33:13;8.30;;;5.63;;
4766;SDS011;2397;53.576;9.746;2023-05-19T04:35:40;16.90;;;5.90;;
4766;SDS011;2397;53.576;9.746;2023-05-19T04:38:10;7.97;;;5.30;;
4766;SDS011;2397;53.576;9.746;2023-05-19T04:40:37;6.47;;;5.30;;
4766;SDS011;2397;53.576;9.746;2023-05-19T04:43:06;7.80;;;4.80;;
4766;SDS011;2397;53.576;9.746;2023-05-19T04:45:34;9.57;;;5.97;;
4766;SDS011;2397;53.576;9.746;2023-05-19T04:48:03;6.57;;;5.07;;
4766;SDS011;2397;53.576;9.746;2023-05-19T04:50:30;7.70;;;5.53;;
4766;SDS011;2397;53.576;9.746;2023-05-19T04:52:58;7.63;;;5.17;;
4766;SDS011;2397;53.576;9.746;2023-05-19T04:55:26;10.03;;;5.03;;
4766;SDS011;2397;53.576;9.746;2023-05-19T04:57:52;12.33;;;6.27;;
4766;SDS011;2397;53.576;9.746;2023-05-19T05:00:19;9.37;;;5.70;;
4766;SDS011;2397;53.576;9.746;2023-05-19T05:02:57;6.27;;;5.40;;
4766;SDS011;2397;53.576;9.746;2023-05-19T05:05:26;8.57;;;5.97;;
4766;SDS011;2397;53.576;9.746;2023-05-19T05:07:53;6.10;;;5.50;;
4766;SDS011;2397;53.576;9.746;2023-05-19T05:10:22;7.20;;;5.67;;
4766;SDS011;2397;53.576;9.746;2023-05-19T05:12:49;13.40;;;5.60;;
4766;SDS011;2397;53.576;9.746;2023-05-19T05:15:16;7.77;;;5.20;;
4766;SDS011;2397;53.576;9.746;2023-05-19T05:17:46;7.57;;;5.47;;
4766;SDS011;2397;53.576;9.746;2023-05-19T05:20:13;6.60;;;5.47;;
4766;SDS011;2397;53.576;9.746;2023-05-19T05:22:41;12.20;;;7.20;;
4766;SDS011;2397;53.576;9.746;2023-05-19T05:25:08;8.07;;;5.90;;
4766;SDS011;2397;53.576;9.746;2023-05-19T05:27:36;8.47;;;6.50;;
4766;SDS011;2397;53.576;9.746;2023-05-19T05:30:06;10.93;;;5.77;;
4766;SDS011;2397;53.576;9.746;2023-05-19T05:32:33;6.60;;;5.90;;
4766;SDS011;2397;53.576;9.746;2023-05-19T05:35:02;6.27;;;5.37;;
4766;SDS011;2397;53.576;9.746;2023-05-19T05:37:29;6.43;;;5.53;;
4766;SDS011;2397;53.576;9.746;2023-05-19T05:39:56;13.83;;;6.07;;
4766;SDS011;2397;53.576;9.746;2023-05-19T05:42:23;5.37;;;4.97;;
4766;SDS011;2397;53.576;9.746;2023-05-19T05:44:50;8.30;;;5.50;;
4766;SDS011;2397;53.576;9.746;2023-05-19T05:47:17;12.60;;;6.07;;
4766;SDS011;2397;53.576;9.746;2023-05-19T05:49:44;8.47;;;5.80;;
4766;SDS011;2397;53.576;9.746;2023-05-19T05:52:14;12.13;;;5.70;;
4766;SDS011;2397;53.576;9.746;2023-05-19T05:54:44;13.83;;;6.13;;
4766;SDS011;2397;53.576;9.746;2023-05-19T05:57:14;13.60;;;5.53;;
4766;SDS011;2397;53.576;9.746;2023-05-19T05:59:42;7.87;;;6.03;;
4766;SDS011;2397;53.576;9.746;2023-05-19T06:02:10;9.07;;;5.83;;
4766;SDS011;2397;53.576;9.746;2023-05-19T06:04:37;8.40;;;5.50;;
4766;SDS011;2397;53.576;9.746;2023-05-19T06:07:04;11.73;;;5.53;;
4766;SDS011;2397;53.576;9.746;2023-05-19T06:09:34;9.60;;;5.63;;
4766;SDS011;2397;53.576;9.746;2023-05-19T06:12:03;10.73;;;5.30;;
4766;SDS011;2397;53.576;9.746;2023-05-19T06:14:36;8.20;;;5.20;;
4766;SDS011;2397;53.576;9.746;2023-05-19T06:17:12;8.00;;;5.07;;
4766;SDS011;2397;53.576;9.746;2023-05-19T06:19:39;11.23;;;5.87;;
4766;SDS011;2397;53.576;9.746;2023-05-19T06:22:06;7.60;;;4.80;;
4766;SDS011;2397;53.576;9.746;2023-05-19T06:24:33;7.93;;;5.63;;
4766;SDS011;2397;53.576;9.746;2023-05-19T06:26:59;9.67;;;5.80;;
4766;SDS011;2397;53.576;9.746;2023-05-19T06:29:26;10.87;;;5.20;;
4766;SDS011;2397;53.576;9.746;2023-05-19T06:31:55;7.87;;;5.57;;
4766;SDS011;2397;53.576;9.746;2023-05-19T06:34:23;6.33;;;5.17;;
4766;SDS011;2397;53.576;9.746;2023-05-19T06:36:49;10.43;;;6.20;;
4766;SDS011;2397;53.576;9.746;2023-05-19T06:39:18;6.93;;;4.83;;
4766;SDS011;2397;53.576;9.746;2023-05-19T06:41:44;9.10;;;5.87;;
4766;SDS011;2397;53.576;9.746;2023-05-19T06:44:23;10.93;;;5.50;;
4766;SDS011;2397;53.576;9.746;2023-05-19T06:46:50;10.93;;;5.40;;
4766;SDS011;2397;53.576;9.746;2023-05-19T06:49:18;8.57;;;5.10;;
4766;SDS011;2397;53.576;9.746;2023-05-19T06:51:46;8.63;;;4.77;;
4766;SDS011;2397;53.576;9.746;2023-05-19T06:54:13;13.33;;;5.40;;
4766;SDS011;2397;53.576;9.746;2023-05-19T06:56:41;15.30;;;6.30;;
4766;SDS011;2397;53.576;9.746;2023-05-19T06:59:08;5.73;;;4.80;;
4766;SDS011;2397;53.576;9.746;2023-05-19T07:01:36;11.47;;;5.83;;
4766;SDS011;2397;53.576;9.746;2023-05-19T07:04:03;10.53;;;4.63;;
4766;SDS011;2397;53.576;9.746;2023-05-19T07:06:30;25.87;;;5.40;;
4766;SDS011;2397;53.576;9.746;2023-05-19T07:08:56;9.87;;;4.70;;
4766;SDS011;2397;53.576;9.746;2023-05-19T07:11:23;9.07;;;4.53;;
4766;SDS011;2397;53.576;9.746;2023-05-19T07:13:50;16.80;;;4.20;;
4766;SDS011;2397;53.576;9.746;2023-05-19T07:16:22;8.97;;;4.60;;
4766;SDS011;2397;53.576;9.746;2023-05-19T07:18:49;8.27;;;4.40;;
4766;SDS011;2397;53.576;9.746;2023-05-19T07:21:16;5.20;;;3.53;;
4766;SDS011;2397;53.576;9.746;2023-05-19T07:23:42;6.83;;;3.57;;
4766;SDS011;2397;53.576;9.746;2023-05-19T07:26:10;5.87;;;3.63;;
4766;SDS011;2397;53.576;9.746;2023-05-19T07:28:36;8.50;;;4.03;;
4766;SDS011;2397;53.576;9.746;2023-05-19T07:31:06;9.63;;;4.23;;
4766;SDS011;2397;53.576;9.746;2023-05-19T07:33:33;7.40;;;3.60;;
4766;SDS011;2397;53.576;9.746;2023-05-19T07:36:00;8.40;;;3.93;;
4766;SDS011;2397;53.576;9.746;2023-05-19T07:38:26;8.43;;;3.20;;
4766;SDS011;2397;53.576;9.746;2023-05-19T07:40:53;9.70;;;3.00;;
4766;SDS011;2397;53.576;9.746;2023-05-19T07:43:20;12.00;;;3.40;;
4766;SDS011;2397;53.576;9.746;2023-05-19T07:45:47;9.63;;;3.93;;
4766;SDS011;2397;53.576;9.746;2023-05-19T07:48:13;9.33;;;2.87;;
4766;SDS011;2397;53.576;9.746;2023-05-19T07:50:40;7.33;;;3.40;;
4766;SDS011;2397;53.576;9.746;2023-05-19T07:53:07;7.10;;;2.83;;
4766;SDS011;2397;53.576;9.746;2023-05-19T07:55:33;7.57;;;2.53;;
4766;SDS011;2397;53.576;9.746;2023-05-19T07:58:00;3.87;;;2.93;;
4766;SDS011;2397;53.576;9.746;2023-05-19T08:00:26;5.70;;;3.20;;
4766;SDS011;2397;53.576;9.746;2023-05-19T08:02:53;6.33;;;2.93;;
4766;SDS011;2397;53.576;9.746;2023-05-19T08:05:22;6.17;;;2.60;;
4766;SDS011;2397;53.576;9.746;2023-05-19T08:07:49;6.20;;;2.97;;
4766;SDS011;2397;53.576;9.746;2023-05-19T08:10:15;7.63;;;2.90;;
4766;SDS011;2397;53.576;9.746;2023-05-19T08:12:42;6.97;;;3.07;;
4766;SDS011;2397;53.576;9.746;2023-05-19T08:15:09;6.90;;;3.57;;
4766;SDS011;2397;53.576;9.746;2023-05-19T08:17:37;3.50;;;2.50;;
4766;SDS011;2397;53.576;9.746;2023-05-19T08:20:03;8.60;;;3.10;;
4766;SDS011;2397;53.576;9.746;2023-05-19T08:22:33;7.90;;;3.13;;
4766;SDS011;2397;53.576;9.746;2023-05-19T08:25:00;3.80;;;2.77;;
4766;SDS011;2397;53.576;9.746;2023-05-19T08:27:26;5.27;;;2.67;;
4766;SDS011;2397;53.576;9.746;2023-05-19T08:29:53;6.00;;;3.10;;
4766;SDS011;2397;53.576;9.746;2023-05-19T08:32:20;6.77;;;3.23;;
4766;SDS011;2397;53.576;9.746;2023-05-19T08:34:47;5.87;;;3.50;;
4766;SDS011;2397;53.576;9.746;2023-05-19T08:37:13;5.77;;;3.20;;
4766;SDS011;2397;53.576;9.746;2023-05-19T08:39:40;6.00;;;3.20;;
4766;SDS011;2397;53.576;9.746;2023-05-19T08:42:07;8.23;;;3.20;;
4766;SDS011;2397;53.576;9.746;2023-05-19T08:44:35;5.80;;;3.10;;
4766;SDS011;2397;53.576;9.746;2023-05-19T08:47:03;5.83;;;2.77;;
4766;SDS011;2397;53.576;9.746;2023-05-19T08:49:34;5.57;;;2.73;;
4766;SDS011;2397;53.576;9.746;2023-05-19T08:52:08;4.53;;;2.70;;
4766;SDS011;2397;53.576;9.746;2023-05-19T08:54:44;6.47;;;2.93;;
4766;SDS011;2397;53.576;9.746;2023-05-19T08:57:16;7.47;;;3.00;;
4766;SDS011;2397;53.576;9.746;2023-05-19T08:59:43;7.10;;;3.07;;
4766;SDS011;2397;53.576;9.746;2023-05-19T09:02:09;6.50;;;3.23;;
4766;SDS011;2397;53.576;9.746;2023-05-19T09:04:38;4.80;;;2.87;;
4766;SDS011;2397;53.576;9.746;2023-05-19T09:07:05;6.40;;;2.73;;
4766;SDS011;2397;53.576;9.746;2023-05-19T09:09:34;3.40;;;2.10;;
4766;SDS011;2397;53.576;9.746;2023-05-19T09:12:00;4.03;;;2.60;;
4766;SDS011;2397;53.576;9.746;2023-05-19T09:14:27;4.00;;;2.47;;
4766;SDS011;2397;53.576;9.746;2023-05-19T09:16:54;5.00;;;2.80;;
4766;SDS011;2397;53.576;9.746;2023-05-19T09:19:21;3.30;;;2.30;;
4766;SDS011;2397;53.576;9.746;2023-05-19T09:21:56;3.23;;;2.60;;
4766;SDS011;2397;53.576;9.746;2023-05-19T09:24:25;6.60;;;2.57;;
4766;SDS011;2397;53.576;9.746;2023-05-19T09:26:53;3.93;;;2.63;;
4766;SDS011;2397;53.576;9.746;2023-05-19T09:29:25;5.33;;;2.50;;
4766;SDS011;2397;53.576;9.746;2023-05-19T09:31:52;5.97;;;2.60;;
4766;SDS011;2397;53.576;9.746;2023-05-19T09:34:21;7.83;;;3.47;;
4766;SDS011;2397;53.576;9.746;2023-05-19T09:36:49;3.30;;;2.30;;
4766;SDS011;2397;53.576;9.746;2023-05-19T09:39:21;5.70;;;2.60;;
4766;SDS011;2397;53.576;9.746;2023-05-19T09:41:52;4.13;;;2.50;;
4766;SDS011;2397;53.576;9.746;2023-05-19T09:46:50;8.97;;;3.53;;
4766;SDS011;2397;53.576;9.746;2023-05-19T09:49:18;8.30;;;2.90;;
4766;SDS011;2397;53.576;9.746;2023-05-19T09:51:50;6.17;;;2.10;;
4766;SDS011;2397;53.576;9.746;2023-05-19T09:54:20;3.77;;;2.30;;
4766;SDS011;2397;53.576;9.746;2023-05-19T09:56:55;3.03;;;2.33;;
4766;SDS011;2397;53.576;9.746;2023-05-19T09:59:22;5.77;;;2.33;;
4766;SDS011;2397;53.576;9.746;2023-05-19T10:01:54;6.90;;;2.63;;
4766;SDS011;2397;53.576;9.746;2023-05-19T10:04:27;7.83;;;2.30;;
4766;SDS011;2397;53.576;9.746;2023-05-19T10:06:55;6.03;;;2.47;;
4766;SDS011;2397;53.576;9.746;2023-05-19T10:09:25;6.60;;;2.53;;
4766;SDS011;2397;53.576;9.746;2023-05-19T10:11:56;5.30;;;2.60;;
4766;SDS011;2397;53.576;9.746;2023-05-19T10:14:24;3.60;;;2.70;;
4766;SDS011;2397;53.576;9.746;2023-05-19T10:16:53;8.80;;;3.10;;
4766;SDS011;2397;53.576;9.746;2023-05-19T10:19:24;7.17;;;2.93;;
4766;SDS011;2397;53.576;9.746;2023-05-19T10:21:53;4.53;;;2.73;;
4766;SDS011;2397;53.576;9.746;2023-05-19T10:24:19;3.93;;;2.60;;
4766;SDS011;2397;53.576;9.746;2023-05-19T10:26:48;5.83;;;2.87;;
4766;SDS011;2397;53.576;9.746;2023-05-19T10:29:31;5.87;;;2.47;;
4766;SDS011;2397;53.576;9.746;2023-05-19T10:32:03;7.47;;;2.70;;
4766;SDS011;2397;53.576;9.746;2023-05-19T10:40:15;5.90;;;2.87;;
4766;SDS011;2397;53.576;9.746;2023-05-19T10:43:01;5.00;;;2.47;;
4766;SDS011;2397;53.576;9.746;2023-05-19T10:45:45;4.80;;;2.60;;
4766;SDS011;2397;53.576;9.746;2023-05-19T10:48:14;5.77;;;2.60;;
4766;SDS011;2397;53.576;9.746;2023-05-19T10:50:42;7.00;;;3.13;;
4766;SDS011;2397;53.576;9.746;2023-05-19T10:53:14;6.77;;;2.60;;
4766;SDS011;2397;53.576;9.746;2023-05-19T10:55:51;4.63;;;2.73;;
4766;SDS011;2397;53.576;9.746;2023-05-19T11:01:12;7.33;;;3.20;;
4766;SDS011;2397;53.576;9.746;2023-05-19T11:06:24;5.67;;;2.70;;
4766;SDS011;2397;53.576;9.746;2023-05-19T11:08:53;5.33;;;2.60;;
4766;SDS011;2397;53.576;9.746;2023-05-19T11:11:22;6.10;;;2.90;;
4766;SDS011;2397;53.576;9.746;2023-05-19T11:13:52;6.00;;;2.40;;
4766;SDS011;2397;53.576;9.746;2023-05-19T11:16:27;5.50;;;2.50;;
4766;SDS011;2397;53.576;9.746;2023-05-19T11:18:55;4.30;;;2.30;;
4766;SDS011;2397;53.576;9.746;2023-05-19T11:21:39;4.53;;;2.30;;
4766;SDS011;2397;53.576;9.746;2023-05-19T11:24:07;8.67;;;2.63;;
4766;SDS011;2397;53.576;9.746;2023-05-19T11:26:40;5.20;;;2.33;;
4766;SDS011;2397;53.576;9.746;2023-05-19T11:29:10;4.60;;;2.10;;
4766;SDS011;2397;53.576;9.746;2023-05-19T11:31:37;7.63;;;2.60;;
4766;SDS011;2397;53.576;9.746;2023-05-19T11:34:04;6.70;;;3.10;;
4766;SDS011;2397;53.576;9.746;2023-05-19T11:36:32;4.30;;;2.17;;
4766;SDS011;2397;53.576;9.746;2023-05-19T11:39:02;4.57;;;2.30;;
4766;SDS011;2397;53.576;9.746;2023-05-19T11:41:30;6.30;;;2.47;;
4766;SDS011;2397;53.576;9.746;2023-05-19T11:43:57;4.43;;;2.33;;
4766;SDS011;2397;53.576;9.746;2023-05-19T11:46:24;5.97;;;2.70;;
4766;SDS011;2397;53.576;9.746;2023-05-19T11:48:52;11.53;;;2.60;;
4766;SDS011;2397;53.576;9.746;2023-05-19T11:51:19;3.00;;;2.37;;
4766;SDS011;2397;53.576;9.746;2023-05-19T11:53:47;4.80;;;2.20;;
4766;SDS011;2397;53.576;9.746;2023-05-19T11:56:15;10.20;;;2.63;;
4766;SDS011;2397;53.576;9.746;2023-05-19T11:58:41;4.13;;;2.63;;
4766;SDS011;2397;53.576;9.746;2023-05-19T12:01:08;4.40;;;2.40;;
4766;SDS011;2397;53.576;9.746;2023-05-19T12:03:35;5.70;;;2.00;;
4766;SDS011;2397;53.576;9.746;2023-05-19T12:06:02;4.50;;;2.80;;
4766;SDS011;2397;53.576;9.746;2023-05-19T12:08:31;3.60;;;2.43;;
4766;SDS011;2397;53.576;9.746;2023-05-19T12:10:57;3.53;;;2.20;;
4766;SDS011;2397;53.576;9.746;2023-05-19T12:13:24;5.97;;;2.60;;
4766;SDS011;2397;53.576;9.746;2023-05-19T12:15:51;3.50;;;2.40;;
4766;SDS011;2397;53.576;9.746;2023-05-19T12:18:18;5.53;;;2.60;;
4766;SDS011;2397;53.576;9.746;2023-05-19T12:20:45;8.03;;;2.67;;
4766;SDS011;2397;53.576;9.746;2023-05-19T12:23:12;4.23;;;2.40;;
4766;SDS011;2397;53.576;9.746;2023-05-19T12:25:39;2.70;;;2.30;;
4766;SDS011;2397;53.576;9.746;2023-05-19T12:28:06;3.20;;;2.20;;
4766;SDS011;2397;53.576;9.746;2023-05-19T12:30:32;7.17;;;2.30;;
4766;SDS011;2397;53.576;9.746;2023-05-19T12:33:01;5.73;;;2.80;;
4766;SDS011;2397;53.576;9.746;2023-05-19T12:35:28;3.33;;;2.37;;
4766;SDS011;2397;53.576;9.746;2023-05-19T12:38:07;4.77;;;2.93;;
4766;SDS011;2397;53.576;9.746;2023-05-19T12:40:34;5.67;;;2.40;;
4766;SDS011;2397;53.576;9.746;2023-05-19T12:43:04;3.37;;;2.07;;
4766;SDS011;2397;53.576;9.746;2023-05-19T12:45:34;6.00;;;2.20;;
4766;SDS011;2397;53.576;9.746;2023-05-19T12:48:02;3.97;;;2.23;;
4766;SDS011;2397;53.576;9.746;2023-05-19T12:50:30;4.40;;;2.53;;
4766;SDS011;2397;53.576;9.746;2023-05-19T12:52:59;7.07;;;2.73;;
4766;SDS011;2397;53.576;9.746;2023-05-19T12:55:26;5.97;;;2.37;;
4766;SDS011;2397;53.576;9.746;2023-05-19T12:57:52;4.87;;;2.23;;
4766;SDS011;2397;53.576;9.746;2023-05-19T13:00:23;2.63;;;1.90;;
4766;SDS011;2397;53.576;9.746;2023-05-19T13:03:03;2.67;;;2.47;;
4766;SDS011;2397;53.576;9.746;2023-05-19T13:05:32;2.43;;;2.10;;
4766;SDS011;2397;53.576;9.746;2023-05-19T13:08:08;4.17;;;2.20;;
4766;SDS011;2397;53.576;9.746;2023-05-19T13:10:38;2.67;;;2.43;;
4766;SDS011;2397;53.576;9.746;2023-05-19T13:13:05;3.60;;;2.20;;
4766;SDS011;2397;53.576;9.746;2023-05-19T13:15:33;2.80;;;2.60;;
4766;SDS011;2397;53.576;9.746;2023-05-19T13:18:06;3.00;;;2.50;;
4766;SDS011;2397;53.576;9.746;2023-05-19T13:20:35;5.70;;;2.50;;
4766;SDS011;2397;53.576;9.746;2023-05-19T13:23:02;3.37;;;1.93;;
4766;SDS011;2397;53.576;9.746;2023-05-19T13:25:30;2.57;;;1.90;;
4766;SDS011;2397;53.576;9.746;2023-05-19T13:27:59;7.17;;;2.80;;
4766;SDS011;2397;53.576;9.746;2023-05-19T13:30:31;4.57;;;2.50;;
4766;SDS011;2397;53.576;9.746;2023-05-19T13:32:59;3.57;;;2.27;;
4766;SDS011;2397;53.576;9.746;2023-05-19T13:35:26;2.80;;;1.90;;
4766;SDS011;2397;53.576;9.746;2023-05-19T13:37:53;3.77;;;2.23;;
4766;SDS011;2397;53.576;9.746;2023-05-19T13:40:19;3.47;;;2.40;;
4766;SDS011;2397;53.576;9.746;2023-05-19T13:42:46;7.33;;;2.93;;
4766;SDS011;2397;53.576;9.746;2023-05-19T13:45:13;2.70;;;2.03;;
4766;SDS011;2397;53.576;9.746;2023-05-19T13:47:40;2.83;;;2.30;;
4766;SDS011;2397;53.576;9.746;2023-05-19T13:50:06;3.97;;;2.20;;
4766;SDS011;2397;53.576;9.746;2023-05-19T13:52:33;2.20;;;1.87;;
4766;SDS011;2397;53.576;9.746;2023-05-19T13:55:00;7.43;;;2.30;;
4766;SDS011;2397;53.576;9.746;2023-05-19T13:57:26;5.70;;;2.83;;
4766;SDS011;2397;53.576;9.746;2023-05-19T13:59:53;4.60;;;2.53;;
4766;SDS011;2397;53.576;9.746;2023-05-19T14:02:37;5.07;;;2.27;;
4766;SDS011;2397;53.576;9.746;2023-05-19T14:05:04;4.30;;;2.40;;
4766;SDS011;2397;53.576;9.746;2023-05-19T14:07:32;2.47;;;2.00;;
4766;SDS011;2397;53.576;9.746;2023-05-19T14:10:01;3.60;;;2.20;;
4766;SDS011;2397;53.576;9.746;2023-05-19T14:12:28;2.57;;;1.90;;
4766;SDS011;2397;53.576;9.746;2023-05-19T14:15:08;4.97;;;2.50;;
4766;SDS011;2397;53.576;9.746;2023-05-19T14:17:36;3.33;;;2.40;;
4766;SDS011;2397;53.576;9.746;2023-05-19T14:20:03;2.77;;;2.10;;
4766;SDS011;2397;53.576;9.746;2023-05-19T14:22:30;5.70;;;2.30;;
4766;SDS011;2397;53.576;9.746;2023-05-19T14:24:57;3.23;;;2.00;;
4766;SDS011;2397;53.576;9.746;2023-05-19T14:27:25;9.30;;;2.60;;
4766;SDS011;2397;53.576;9.746;2023-05-19T14:29:52;3.23;;;2.53;;
4766;SDS011;2397;53.576;9.746;2023-05-19T14:32:19;4.20;;;2.30;;
4766;SDS011;2397;53.576;9.746;2023-05-19T14:34:45;4.23;;;2.20;;
4766;SDS011;2397;53.576;9.746;2023-05-19T14:37:12;4.83;;;1.93;;
4766;SDS011;2397;53.576;9.746;2023-05-19T14:39:38;2.90;;;1.93;;
4766;SDS011;2397;53.576;9.746;2023-05-19T14:42:05;3.00;;;2.30;;
4766;SDS011;2397;53.576;9.746;2023-05-19T14:44:31;4.07;;;2.10;;
4766;SDS011;2397;53.576;9.746;2023-05-19T14:46:59;5.13;;;2.60;;
4766;SDS011;2397;53.576;9.746;2023-05-19T14:49:26;3.67;;;2.67;;
4766;SDS011;2397;53.576;9.746;2023-05-19T14:51:52;3.83;;;2.07;;
4766;SDS011;2397;53.576;9.746;2023-05-19T14:54:19;4.27;;;2.10;;
4766;SDS011;2397;53.576;9.746;2023-05-19T14:56:46;4.00;;;1.93;;
4766;SDS011;2397;53.576;9.746;2023-05-19T14:59:12;3.60;;;2.13;;
4766;SDS011;2397;53.576;9.746;2023-05-19T15:01:39;4.20;;;1.87;;
4766;SDS011;2397;53.576;9.746;2023-05-19T15:04:06;2.30;;;1.90;;
4766;SDS011;2397;53.576;9.746;2023-05-19T15:06:32;2.43;;;2.00;;
4766;SDS011;2397;53.576;9.746;2023-05-19T15:08:59;3.37;;;2.23;;
4766;SDS011;2397;53.576;9.746;2023-05-19T15:11:25;2.97;;;2.40;;
4766;SDS011;2397;53.576;9.746;2023-05-19T15:13:52;2.80;;;2.20;;
4766;SDS011;2397;53.576;9.746;2023-05-19T15:16:18;3.03;;;1.70;;
4766;SDS011;2397;53.576;9.746;2023-05-19T15:18:45;2.87;;;2.10;;
4766;SDS011;2397;53.576;9.746;2023-05-19T15:21:11;3.43;;;2.47;;
4766;SDS011;2397;53.576;9.746;2023-05-19T15:23:38;3.70;;;2.20;;
4766;SDS011;2397;53.576;9.746;2023-05-19T15:26:05;5.60;;;2.10;;
4766;SDS011;2397;53.576;9.746;2023-05-19T15:28:32;4.20;;;2.43;;
4766;SDS011;2397;53.576;9.746;2023-05-19T15:30:59;4.73;;;1.83;;
4766;SDS011;2397;53.576;9.746;2023-05-19T15:33:26;2.43;;;1.80;;
4766;SDS011;2397;53.576;9.746;2023-05-19T15:35:52;2.90;;;2.00;;
4766;SDS011;2397;53.576;9.746;2023-05-19T15:38:19;2.97;;;2.27;;
4766;SDS011;2397;53.576;9.746;2023-05-19T15:40:46;2.83;;;1.83;;
4766;SDS011;2397;53.576;9.746;2023-05-19T15:43:12;2.63;;;2.33;;
4766;SDS011;2397;53.576;9.746;2023-05-19T15:49:01;3.40;;;2.17;;
4766;SDS011;2397;53.576;9.746;2023-05-19T15:51:27;3.03;;;2.23;;